• location
  • image
mod_vvisit_countermod_vvisit_countermod_vvisit_countermod_vvisit_countermod_vvisit_countermod_vvisit_counter
mod_vvisit_counterToday817
mod_vvisit_counterYesterday534
mod_vvisit_counterThis week1990
mod_vvisit_counterLast week5599
mod_vvisit_counterThis month11836
mod_vvisit_counterLast month23031
mod_vvisit_counterAll days997793

We have: 22 guests online
Your IP: 54.92.163.105
 , 
Today: Oct 16, 2018
Airport / News / June 2013

June 2013

The world’s biggest trade exhibition for the logistics industry Transport Logistic 2013 took place on June 4-7, 2013 in Munich (Germany). The show also encompassed Air Cargo Europe, an exhibition and conference for the global air freight and logistics industry, where Siauliai International Airport was presented.

June 2013 Prd1

Transport Logistic international exhibition, held every two years and specialized for logistics, communications, IT and supply chain management, is the largest exhibition of its kind in the world. The show covers the entire world of transport and logistics - telematics, transport processes, logistics, and freight transport. Based on the data of the exhibition organizers, this year’s exhibition attracted about 2,000 exhibitors from more than 60 countries and a record 53,000 trade visitors. Most visitors came from Germany, Austria, Holland, Italy, Switzerland, France, the Czech Republic, Poland, Great Britain and Spain. A number of additional events, like workshops, forums, conferences, etc. were held during the show, which covered the issues of the logistics and transport economy markets, trends and innovations, as well as ecology in logistics, telematics, cargo transportation without Borders, etc.

June 2013 Prd2

In the exhibition, Municipal Company Siauliu oro uostas along with the charter broker company FCG (Flight Consulting Group) Ltd. and customs warehouse operator UAB Rikusta presented a joint project New Baltic Air Cargo Gate, which aims to provide a package of air transport services via the Baltic region, in partnership of the three mentioned companies. The project provides a client willing to transport any type of cargo through Siauliai International Airport with all the flight organization and cargo/aircraft handling services “on a plate”.

June 2013 Prd3

Today

Wednesday, 17 October 2018

Aviation Weather Forecast

[source: ADDS]
METAR
EYSA 162050Z 22006KT CAVOK 10/06 Q1023 BLU NOSIG =
TAF EYSA 162000Z 1621/1706 VRB04KT CAVOK
TAF
TAF EYSA 162000Z 1621/1706 VRB04KT CAVOK =
SR / SS: 05:02 / 15:24 UTC (EYSA 2018-10-17)

Search

Who's Online

We have 22 guests online

tic logo en